sim
Sign-in with your pilot id or email,
or register
Callsign
Passwort

Schedule Details

Flight Number: EWG9220 (1)
Departure: Dusseldorf International Airport (EDDL) at 05:35
Arrival: Gothenburg Landvetter Airport (ESGG) at 07:35
Route: Eurowings Passenger Schedule. Enter filed route here before submitting Pirep.

Weather Information
Getting current METAR information for EDDL 251220Z 18011KT 9999 -RA SCT020 BKN030 13/11 Q1003 NOSIG
Getting current METAR information for ESGG 251220Z 20024KT 7000 -RA SCT005 BKN007 11/10 Q0998

Schedule Frequency

Route Map